Terminal Aerodrome Forecast
Issued by NWS Charleston, WV

Current Version | Previous Version | Text Only | Print | Product List | Glossary Off
Versions: 1 2 3 4 5 6 7 8 9 10 11 12 13 14 15 16 17 18 19 20 21 22 23 24 25 26 27 28

000
FTUS41 KRLX 251749
TAFEKN
TAF
KEKN 251749Z 2518/2618 27007KT P6SM VCTS SCT035CB
     FM260000 26004KT P6SM -TSRA BKN035CB
     FM260300 VRB03KT P6SM VCTS BKN045CB
     FM260900 VRB02KT 3SM -TSRA BR BKN030CB
     FM261100 VRB03KT 2SM -RA BKN022
     FM261300 VRB03KT 6SM -RA BKN030
     FM261400 VRB03KT P6SM BKN040=

USA.gov is the U.S. government's official web portal to all federal, state and local government web resources and services.